Weather History for Afton Municipal Airport, WY

Change the Weather History Date:

Saturday, February 8, 2014

  Actual Average Record
Temperature  
Mean Temperature 30 °F -  
Max Temperature 33 °F 30 °F 33 °F (2014)
Min Temperature 26 °F 1 °F 26 °F (2014)
Degree Days  
Heating Degree Days 36    
Moisture  
Dew Point 28 °F    
Average Humidity 87    
Maximum Humidity 100    
Minimum Humidity 74    
Precipitation  
Precipitation 0.00 in - - ()
Sea Level Pressure  
Sea Level Pressure 29.81 in    
Wind  
Wind Speed 9 mph (South)    
Max Wind Speed 16 mph    
Max Gust Speed 23 mph    
Visibility 4 miles    
Events Snow    
Averages and records for this station are not official NWS values.
T = Trace of Precipitation, MM = Missing Value Source: NWS Daily Summary

Daily Weather History Graph

Daily Weather History Graph

Search for Another Location

Airport:

Trip Planner

Search our weather history database for the weather conditions in past years. The results will help you decide how hot, cold, wet, or windy it might be!

Date:

Astronomy

Feb. 08, 2014 Rise Set
Actual Time 7:29 AM MST 5:46 PM MST
Civil Twilight 7:00 AM MST 6:15 PM MST
Nautical Twilight 6:27 AM MST 6:49 PM MST
Astronomical Twilight 5:54 AM MST 7:22 PM MST
Moon 12:41 PM MST (2/8) 2:47 AM MST (2/8)
Length of Visible Light 11h 15m
Length of Day
10h 16m
Waxing Gibbous, 69% of the Moon is Illuminated
Feb 8
Waxing Gibbous
Feb 14
Full
Feb 22
Last Quarter
Mar 1
New
Mar 8
First Quarter

Hourly Weather History & Observations

Time (MST) Temp. Windchill Dew Point Humidity Pressure Visibility Wind Dir Wind Speed Gust Speed Precip Events Conditions
12:15 AM 28.4 °F 19.1 °F 21.2 °F 74% 29.73 in 10.0 mi SSE 10.4 mph - N/A   Scattered Clouds
12:35 AM 28.4 °F 21.2 °F 21.2 °F 74% 29.73 in 7.0 mi SSE 6.9 mph - N/A   Mostly Cloudy
12:55 AM 28.4 °F 19.1 °F 21.2 °F 74% 29.72 in 7.0 mi SSE 10.4 mph - N/A Snow Light Snow
1:15 AM 26.6 °F 16.8 °F 21.2 °F 80% 29.71 in 4.0 mi SSE 10.4 mph - N/A Snow Light Snow
1:35 AM 28.4 °F 19.7 °F 23.0 °F 80% 29.71 in 4.0 mi South 9.2 mph - N/A Snow Light Snow
1:55 AM 28.4 °F 19.1 °F 23.0 °F 80% 29.71 in 4.0 mi SSE 10.4 mph - N/A Snow Light Snow
2:15 AM 28.4 °F 18.5 °F 23.0 °F 80% 29.70 in 2.0 mi SSE 11.5 mph 18.4 mph N/A Snow Light Snow
2:35 AM 28.4 °F 17.0 °F 24.8 °F 86% 29.69 in 2.5 mi SE 15.0 mph 19.6 mph N/A Snow Light Snow
2:55 AM 30.2 °F 20.2 °F 24.8 °F 80% 29.69 in 2.0 mi SSE 12.7 mph 19.6 mph N/A Snow Light Snow
3:15 AM 30.2 °F 19.8 °F 26.6 °F 86% 29.69 in 1.2 mi SE 13.8 mph 20.7 mph N/A Snow Light Snow
3:35 AM 30.2 °F 20.8 °F 26.6 °F 86% 29.70 in 1.2 mi SSE 11.5 mph 19.6 mph N/A Snow Snow
3:55 AM 30.2 °F 21.3 °F 26.6 °F 86% 29.71 in 1.2 mi SE 10.4 mph - N/A Snow Light Snow
4:15 AM 30.2 °F 21.9 °F 26.6 °F 86% 29.71 in 1.2 mi SSE 9.2 mph - N/A Snow Light Snow
4:35 AM 30.2 °F 23.4 °F 26.6 °F 86% 29.70 in 2.5 mi SSE 6.9 mph - N/A Snow Light Snow
4:55 AM 30.2 °F 24.3 °F 26.6 °F 86% 29.70 in 2.5 mi SSE 5.8 mph - N/A Snow Light Snow
5:15 AM 30.2 °F 21.3 °F 28.4 °F 93% 29.70 in 2.0 mi SSE 10.4 mph - N/A Snow Light Snow
5:35 AM 30.2 °F 21.9 °F 28.4 °F 93% 29.70 in 1.8 mi SSE 9.2 mph - N/A Snow Light Snow
5:55 AM 30.2 °F 21.9 °F 28.4 °F 93% 29.70 in 1.0 mi SSE 9.2 mph - N/A Snow Snow
6:15 AM 30.2 °F 22.6 °F 28.4 °F 93% 29.71 in 1.0 mi SSE 8.1 mph - N/A Snow Snow
6:35 AM 30.2 °F 22.6 °F 28.4 °F 93% 29.71 in 1.0 mi SSE 8.1 mph - N/A Snow Snow
6:55 AM 30.2 °F 26.7 °F 28.4 °F 93% 29.73 in 1.2 mi SSE 3.5 mph - N/A Snow Light Snow
7:15 AM 30.2 °F 25.4 °F 30.2 °F 100% 29.75 in 1.5 mi South 4.6 mph - N/A   Overcast
7:35 AM 32.0 °F 25.6 °F 28.4 °F 87% 29.76 in 5.0 mi SW 6.9 mph - N/A   Overcast
7:55 AM 32.0 °F 24.8 °F 28.4 °F 87% 29.76 in 7.0 mi West 8.1 mph - N/A Snow Light Snow
8:15 AM 32.0 °F 23.0 °F 28.4 °F 87% 29.77 in 7.0 mi West 11.5 mph 16.1 mph N/A   Overcast
8:35 AM 32.0 °F 21.2 °F 28.4 °F 87% 29.79 in 7.0 mi West 16.1 mph 23.0 mph N/A Snow Light Snow
8:55 AM 33.8 °F 24.3 °F 28.4 °F 81% 29.79 in 10.0 mi West 13.8 mph 23.0 mph N/A   Mostly Cloudy
9:15 AM 33.8 °F 23.9 °F 28.4 °F 81% 29.81 in 7.0 mi West 15.0 mph 21.9 mph N/A   Mostly Cloudy
9:35 AM 33.8 °F 25.3 °F 28.4 °F 81% 29.82 in 10.0 mi West 11.5 mph 20.7 mph N/A   Mostly Cloudy
9:55 AM 33.8 °F 24.3 °F 28.4 °F 81% 29.82 in 10.0 mi West 13.8 mph 23.0 mph N/A   Mostly Cloudy
10:15 AM 33.8 °F 26.4 °F 28.4 °F 81% 29.83 in 4.0 mi West 9.2 mph - N/A Snow Light Snow
10:35 AM 33.8 °F 25.3 °F 28.4 °F 81% 29.84 in 7.0 mi West 11.5 mph 17.3 mph N/A   Mostly Cloudy
10:55 AM 33.8 °F 25.8 °F 28.4 °F 81% 29.85 in 10.0 mi West 10.4 mph - N/A   Scattered Clouds
11:15 AM 33.8 °F 25.3 °F 28.4 °F 81% 29.86 in 10.0 mi West 11.5 mph - N/A   Mostly Cloudy
11:35 AM 33.8 °F 24.3 °F 28.4 °F 81% 29.86 in 7.0 mi West 13.8 mph 19.6 mph N/A   Mostly Cloudy
11:55 AM 33.8 °F 26.4 °F 28.4 °F 81% 29.85 in 10.0 mi West 9.2 mph 19.6 mph N/A   Mostly Cloudy
12:15 PM 33.8 °F 24.3 °F 28.4 °F 81% 29.86 in 4.0 mi West 13.8 mph - N/A Snow Light Snow
12:35 PM 32.0 °F - 30.2 °F 93% 29.86 in 7.0 mi Calm Calm - N/A   Mostly Cloudy
12:55 PM 33.8 °F - 30.2 °F 87% 29.85 in 7.0 mi Calm Calm - N/A   Mostly Cloudy
1:15 PM 33.8 °F 27.7 °F 28.4 °F 81% 29.85 in 7.0 mi West 6.9 mph - N/A Snow Light Snow
1:35 PM 32.0 °F 24.8 °F 30.2 °F 93% 29.86 in 5.0 mi WNW 8.1 mph - N/A Snow Light Snow
1:55 PM 33.8 °F 28.6 °F 30.2 °F 87% 29.86 in 3.0 mi WNW 5.8 mph - N/A Snow Light Snow
2:15 PM 33.8 °F 30.8 °F 28.4 °F 81% 29.86 in 4.0 mi SW 3.5 mph - N/A Snow Light Snow
2:35 PM 32.0 °F 23.6 °F 30.2 °F 93% 29.86 in 4.0 mi WSW 10.4 mph - N/A Snow Light Snow
2:55 PM 32.0 °F 24.2 °F 28.4 °F 87% 29.86 in 5.0 mi WSW 9.2 mph - N/A Snow Light Snow
3:15 PM 33.8 °F - 28.4 °F 81% 29.87 in 10.0 mi Calm Calm - N/A   Mostly Cloudy
3:35 PM 33.8 °F 24.8 °F 26.6 °F 75% 29.87 in 7.0 mi WSW 12.7 mph 17.3 mph N/A Snow Light Snow
3:55 PM 32.0 °F 26.4 °F 28.4 °F 87% 29.88 in 2.5 mi West 5.8 mph 11.5 mph N/A Snow Light Snow
4:15 PM 32.0 °F - 28.4 °F 87% 29.88 in 2.5 mi Calm Calm - N/A Snow Light Snow
4:35 PM 32.0 °F 28.7 °F 30.2 °F 93% 29.88 in 4.0 mi ENE 3.5 mph - N/A Snow Light Snow
4:55 PM 32.0 °F 28.7 °F 30.2 °F 93% 29.88 in 2.0 mi ENE 3.5 mph - N/A Snow Light Snow
5:15 PM 32.0 °F - 30.2 °F 93% 29.89 in 0.8 mi Calm Calm - N/A Snow Snow
5:35 PM 32.0 °F - 30.2 °F 93% 29.89 in 0.5 mi Calm Calm - N/A Snow Snow
5:55 PM 32.0 °F 25.6 °F 30.2 °F 93% 29.89 in 0.8 mi SE 6.9 mph - N/A Snow Snow
6:15 PM 32.0 °F 24.8 °F 30.2 °F 93% 29.89 in 1.5 mi SE 8.1 mph - N/A Snow Light Snow
6:35 PM 32.0 °F 25.6 °F 30.2 °F 93% 29.90 in 1.8 mi SE 6.9 mph - N/A Snow Light Snow
6:55 PM 32.0 °F 25.6 °F 30.2 °F 93% 29.89 in 1.5 mi ESE 6.9 mph - N/A Snow Light Snow
7:15 PM 32.0 °F 26.4 °F 30.2 °F 93% 29.89 in 1.5 mi SE 5.8 mph - N/A Snow Light Snow
7:35 PM 32.0 °F 25.6 °F 30.2 °F 93% 29.89 in 1.8 mi SSE 6.9 mph - N/A Snow Light Snow
7:55 PM 32.0 °F 24.8 °F 30.2 °F 93% 29.90 in 2.0 mi SSE 8.1 mph - N/A Snow Light Snow
8:15 PM 32.0 °F 24.8 °F 30.2 °F 93% 29.89 in 1.5 mi SSE 8.1 mph - N/A Snow Light Snow
8:35 PM 32.0 °F 23.6 °F 30.2 °F 93% 29.89 in 1.8 mi SSE 10.4 mph - N/A Snow Light Snow
8:55 PM 32.0 °F 23.6 °F 30.2 °F 93% 29.88 in 2.0 mi SE 10.4 mph - N/A Snow Light Snow
9:15 PM 32.0 °F 24.8 °F 30.2 °F 93% 29.87 in 3.0 mi SSE 8.1 mph - N/A Snow Light Snow
9:35 PM 32.0 °F 26.4 °F 30.2 °F 93% 29.86 in 2.5 mi SE 5.8 mph - N/A Snow Light Snow
9:55 PM 32.0 °F 26.4 °F 30.2 °F 93% 29.86 in 2.5 mi South 5.8 mph - N/A Snow Light Snow
10:15 PM 32.0 °F 24.8 °F 30.2 °F 93% 29.85 in 4.0 mi SSE 8.1 mph - N/A Snow Light Snow
10:35 PM 32.0 °F 23.0 °F 30.2 °F 93% 29.83 in 5.0 mi SSE 11.5 mph - N/A Snow Light Snow
10:55 PM 32.0 °F 23.6 °F 30.2 °F 93% 29.83 in 4.0 mi SE 10.4 mph - N/A Snow Light Snow
11:15 PM 33.8 °F 29.6 °F 30.2 °F 87% 29.84 in 5.0 mi SSE 4.6 mph - N/A Snow Light Snow
11:35 PM 33.8 °F 27.0 °F 28.4 °F 81% 29.85 in 10.0 mi SSE 8.1 mph - N/A   Mostly Cloudy
11:55 PM 33.8 °F 26.4 °F 28.4 °F 81% 29.84 in 10.0 mi SE 9.2 mph - N/A   Overcast